sensor_id;sensor_type;location;lat;lon;timestamp;P1;durP1;ratioP1;P2;durP2;ratioP2
81229;SDS011;70701;44.452;18.652;2023-07-13T00:00:25;9.95;;;6.93;;
81229;SDS011;70701;44.452;18.652;2023-07-13T00:02:53;10.25;;;7.40;;
81229;SDS011;70701;44.452;18.652;2023-07-13T00:05:20;12.43;;;7.35;;
81229;SDS011;70701;44.452;18.652;2023-07-13T00:07:46;9.52;;;7.22;;
81229;SDS011;70701;44.452;18.652;2023-07-13T00:10:11;11.23;;;7.60;;
81229;SDS011;70701;44.452;18.652;2023-07-13T00:12:38;12.77;;;7.80;;
81229;SDS011;70701;44.452;18.652;2023-07-13T00:15:10;9.15;;;7.93;;
81229;SDS011;70701;44.452;18.652;2023-07-13T00:17:39;10.82;;;7.63;;
81229;SDS011;70701;44.452;18.652;2023-07-13T00:20:05;13.45;;;9.07;;
81229;SDS011;70701;44.452;18.652;2023-07-13T00:22:32;11.88;;;8.90;;
81229;SDS011;70701;44.452;18.652;2023-07-13T00:24:58;12.27;;;9.20;;
81229;SDS011;70701;44.452;18.652;2023-07-13T00:27:23;11.70;;;9.43;;
81229;SDS011;70701;44.452;18.652;2023-07-13T00:29:52;10.77;;;9.20;;
81229;SDS011;70701;44.452;18.652;2023-07-13T00:32:18;13.10;;;9.80;;
81229;SDS011;70701;44.452;18.652;2023-07-13T00:34:43;16.02;;;10.40;;
81229;SDS011;70701;44.452;18.652;2023-07-13T00:37:09;14.40;;;10.18;;
81229;SDS011;70701;44.452;18.652;2023-07-13T00:39:36;15.00;;;9.30;;
81229;SDS011;70701;44.452;18.652;2023-07-13T00:42:02;19.05;;;9.57;;
81229;SDS011;70701;44.452;18.652;2023-07-13T00:44:28;17.45;;;9.20;;
81229;SDS011;70701;44.452;18.652;2023-07-13T00:46:54;12.63;;;8.57;;
81229;SDS011;70701;44.452;18.652;2023-07-13T00:49:23;12.32;;;7.88;;
81229;SDS011;70701;44.452;18.652;2023-07-13T00:51:52;20.83;;;9.57;;
81229;SDS011;70701;44.452;18.652;2023-07-13T00:54:37;12.40;;;9.05;;
81229;SDS011;70701;44.452;18.652;2023-07-13T00:57:09;13.57;;;10.25;;
81229;SDS011;70701;44.452;18.652;2023-07-13T00:59:40;11.38;;;9.73;;
81229;SDS011;70701;44.452;18.652;2023-07-13T01:02:08;13.13;;;9.82;;
81229;SDS011;70701;44.452;18.652;2023-07-13T01:04:35;12.70;;;9.65;;
81229;SDS011;70701;44.452;18.652;2023-07-13T01:07:00;12.82;;;9.57;;
81229;SDS011;70701;44.452;18.652;2023-07-13T01:09:27;10.70;;;9.10;;
81229;SDS011;70701;44.452;18.652;2023-07-13T01:11:53;13.10;;;8.90;;
81229;SDS011;70701;44.452;18.652;2023-07-13T01:14:19;10.52;;;8.77;;
81229;SDS011;70701;44.452;18.652;2023-07-13T01:16:45;12.27;;;8.88;;
81229;SDS011;70701;44.452;18.652;2023-07-13T01:19:35;12.07;;;8.50;;
81229;SDS011;70701;44.452;18.652;2023-07-13T01:22:05;10.77;;;8.45;;
81229;SDS011;70701;44.452;18.652;2023-07-13T01:24:37;12.88;;;8.75;;
81229;SDS011;70701;44.452;18.652;2023-07-13T01:27:04;14.25;;;8.00;;
81229;SDS011;70701;44.452;18.652;2023-07-13T01:29:31;9.40;;;7.28;;
81229;SDS011;70701;44.452;18.652;2023-07-13T01:31:58;11.38;;;7.50;;
81229;SDS011;70701;44.452;18.652;2023-07-13T01:34:25;9.82;;;7.97;;
81229;SDS011;70701;44.452;18.652;2023-07-13T01:36:52;12.18;;;7.88;;
81229;SDS011;70701;44.452;18.652;2023-07-13T01:39:22;14.63;;;8.02;;
81229;SDS011;70701;44.452;18.652;2023-07-13T01:41:50;14.50;;;7.63;;
81229;SDS011;70701;44.452;18.652;2023-07-13T01:44:19;12.25;;;7.55;;
81229;SDS011;70701;44.452;18.652;2023-07-13T01:46:45;13.85;;;7.82;;
81229;SDS011;70701;44.452;18.652;2023-07-13T01:49:11;16.58;;;8.65;;
81229;SDS011;70701;44.452;18.652;2023-07-13T01:51:36;13.20;;;8.98;;
81229;SDS011;70701;44.452;18.652;2023-07-13T01:54:02;15.38;;;8.40;;
81229;SDS011;70701;44.452;18.652;2023-07-13T01:56:28;12.02;;;8.45;;
81229;SDS011;70701;44.452;18.652;2023-07-13T01:58:54;12.77;;;8.93;;
81229;SDS011;70701;44.452;18.652;2023-07-13T02:01:19;13.38;;;9.15;;
81229;SDS011;70701;44.452;18.652;2023-07-13T02:03:46;13.70;;;9.30;;
81229;SDS011;70701;44.452;18.652;2023-07-13T02:06:12;14.35;;;9.75;;
81229;SDS011;70701;44.452;18.652;2023-07-13T02:08:37;14.30;;;9.85;;
81229;SDS011;70701;44.452;18.652;2023-07-13T02:11:03;17.33;;;10.10;;
81229;SDS011;70701;44.452;18.652;2023-07-13T02:13:29;14.93;;;10.50;;
81229;SDS011;70701;44.452;18.652;2023-07-13T02:15:55;13.10;;;10.68;;
81229;SDS011;70701;44.452;18.652;2023-07-13T02:18:22;15.77;;;11.52;;
81229;SDS011;70701;44.452;18.652;2023-07-13T02:20:47;18.13;;;11.75;;
81229;SDS011;70701;44.452;18.652;2023-07-13T02:23:13;12.98;;;11.20;;
81229;SDS011;70701;44.452;18.652;2023-07-13T02:25:39;16.20;;;11.23;;
81229;SDS011;70701;44.452;18.652;2023-07-13T02:28:05;17.02;;;11.55;;
81229;SDS011;70701;44.452;18.652;2023-07-13T02:30:30;14.95;;;11.88;;
81229;SDS011;70701;44.452;18.652;2023-07-13T02:32:57;15.45;;;11.10;;
81229;SDS011;70701;44.452;18.652;2023-07-13T02:35:23;15.70;;;10.93;;
81229;SDS011;70701;44.452;18.652;2023-07-13T02:37:49;18.17;;;10.93;;
81229;SDS011;70701;44.452;18.652;2023-07-13T02:40:14;18.80;;;11.15;;
81229;SDS011;70701;44.452;18.652;2023-07-13T02:42:40;14.85;;;11.25;;
81229;SDS011;70701;44.452;18.652;2023-07-13T02:45:07;13.07;;;10.98;;
81229;SDS011;70701;44.452;18.652;2023-07-13T02:47:35;15.75;;;10.65;;
81229;SDS011;70701;44.452;18.652;2023-07-13T02:50:01;13.40;;;11.57;;
81229;SDS011;70701;44.452;18.652;2023-07-13T02:52:27;16.67;;;11.00;;
81229;SDS011;70701;44.452;18.652;2023-07-13T02:54:53;16.58;;;11.32;;
81229;SDS011;70701;44.452;18.652;2023-07-13T02:57:19;16.88;;;11.98;;
81229;SDS011;70701;44.452;18.652;2023-07-13T02:59:45;21.20;;;12.43;;
81229;SDS011;70701;44.452;18.652;2023-07-13T03:02:11;14.90;;;10.82;;
81229;SDS011;70701;44.452;18.652;2023-07-13T03:04:38;14.48;;;11.07;;
81229;SDS011;70701;44.452;18.652;2023-07-13T03:07:06;15.10;;;10.45;;
81229;SDS011;70701;44.452;18.652;2023-07-13T03:09:35;14.25;;;11.20;;
81229;SDS011;70701;44.452;18.652;2023-07-13T03:12:04;26.20;;;12.20;;
81229;SDS011;70701;44.452;18.652;2023-07-13T03:14:31;22.00;;;11.80;;
81229;SDS011;70701;44.452;18.652;2023-07-13T03:16:59;14.70;;;11.48;;
81229;SDS011;70701;44.452;18.652;2023-07-13T03:19:28;14.57;;;11.27;;
81229;SDS011;70701;44.452;18.652;2023-07-13T03:21:54;14.88;;;11.90;;
81229;SDS011;70701;44.452;18.652;2023-07-13T03:24:20;14.73;;;12.05;;
81229;SDS011;70701;44.452;18.652;2023-07-13T03:26:50;18.33;;;12.27;;
81229;SDS011;70701;44.452;18.652;2023-07-13T03:29:17;18.52;;;11.45;;
81229;SDS011;70701;44.452;18.652;2023-07-13T03:31:43;14.93;;;11.40;;
81229;SDS011;70701;44.452;18.652;2023-07-13T03:34:09;17.55;;;14.48;;
81229;SDS011;70701;44.452;18.652;2023-07-13T03:36:36;17.38;;;13.18;;
81229;SDS011;70701;44.452;18.652;2023-07-13T03:39:05;14.35;;;11.55;;
81229;SDS011;70701;44.452;18.652;2023-07-13T03:41:44;18.13;;;11.27;;
81229;SDS011;70701;44.452;18.652;2023-07-13T03:44:11;15.90;;;12.45;;
81229;SDS011;70701;44.452;18.652;2023-07-13T03:46:37;16.48;;;12.30;;
81229;SDS011;70701;44.452;18.652;2023-07-13T03:49:04;13.38;;;11.98;;
81229;SDS011;70701;44.452;18.652;2023-07-13T03:51:31;17.65;;;10.95;;
81229;SDS011;70701;44.452;18.652;2023-07-13T03:53:56;16.60;;;12.27;;
81229;SDS011;70701;44.452;18.652;2023-07-13T03:56:22;18.42;;;11.30;;
81229;SDS011;70701;44.452;18.652;2023-07-13T03:58:49;16.27;;;10.93;;
81229;SDS011;70701;44.452;18.652;2023-07-13T04:01:19;18.27;;;12.82;;
81229;SDS011;70701;44.452;18.652;2023-07-13T04:03:47;17.38;;;12.00;;
81229;SDS011;70701;44.452;18.652;2023-07-13T04:06:15;19.88;;;13.00;;
81229;SDS011;70701;44.452;18.652;2023-07-13T04:08:53;34.38;;;27.52;;
81229;SDS011;70701;44.452;18.652;2023-07-13T04:11:21;22.02;;;19.13;;
81229;SDS011;70701;44.452;18.652;2023-07-13T04:13:48;21.27;;;17.17;;
81229;SDS011;70701;44.452;18.652;2023-07-13T04:16:16;17.42;;;15.00;;
81229;SDS011;70701;44.452;18.652;2023-07-13T04:18:43;14.82;;;12.30;;
81229;SDS011;70701;44.452;18.652;2023-07-13T04:21:09;15.57;;;12.30;;
81229;SDS011;70701;44.452;18.652;2023-07-13T04:23:36;14.32;;;12.73;;
81229;SDS011;70701;44.452;18.652;2023-07-13T04:26:02;15.90;;;13.25;;
81229;SDS011;70701;44.452;18.652;2023-07-13T04:28:28;29.48;;;22.05;;
81229;SDS011;70701;44.452;18.652;2023-07-13T04:30:55;24.42;;;19.23;;
81229;SDS011;70701;44.452;18.652;2023-07-13T04:33:22;15.73;;;13.30;;
81229;SDS011;70701;44.452;18.652;2023-07-13T04:35:52;18.60;;;12.80;;
81229;SDS011;70701;44.452;18.652;2023-07-13T04:38:23;22.35;;;14.27;;
81229;SDS011;70701;44.452;18.652;2023-07-13T04:40:50;17.98;;;14.40;;
81229;SDS011;70701;44.452;18.652;2023-07-13T04:43:17;22.95;;;15.43;;
81229;SDS011;70701;44.452;18.652;2023-07-13T04:45:43;25.33;;;17.42;;
81229;SDS011;70701;44.452;18.652;2023-07-13T04:48:09;27.08;;;14.57;;
81229;SDS011;70701;44.452;18.652;2023-07-13T04:50:37;19.60;;;15.43;;
81229;SDS011;70701;44.452;18.652;2023-07-13T04:53:03;17.13;;;14.27;;
81229;SDS011;70701;44.452;18.652;2023-07-13T04:55:30;24.85;;;19.73;;
81229;SDS011;70701;44.452;18.652;2023-07-13T04:57:56;26.88;;;20.23;;
81229;SDS011;70701;44.452;18.652;2023-07-13T05:00:24;24.75;;;18.08;;
81229;SDS011;70701;44.452;18.652;2023-07-13T05:02:50;21.75;;;18.35;;
81229;SDS011;70701;44.452;18.652;2023-07-13T05:05:16;20.63;;;16.83;;
81229;SDS011;70701;44.452;18.652;2023-07-13T05:07:42;25.02;;;20.17;;
81229;SDS011;70701;44.452;18.652;2023-07-13T05:10:08;27.27;;;20.80;;
81229;SDS011;70701;44.452;18.652;2023-07-13T05:12:34;28.85;;;23.98;;
81229;SDS011;70701;44.452;18.652;2023-07-13T05:15:00;41.33;;;32.13;;
81229;SDS011;70701;44.452;18.652;2023-07-13T05:17:27;26.98;;;22.60;;
81229;SDS011;70701;44.452;18.652;2023-07-13T05:19:52;21.85;;;19.35;;
81229;SDS011;70701;44.452;18.652;2023-07-13T05:22:18;26.33;;;21.98;;
81229;SDS011;70701;44.452;18.652;2023-07-13T05:24:44;23.60;;;20.95;;
81229;SDS011;70701;44.452;18.652;2023-07-13T05:27:09;20.98;;;15.63;;
81229;SDS011;70701;44.452;18.652;2023-07-13T05:29:36;24.83;;;16.95;;
81229;SDS011;70701;44.452;18.652;2023-07-13T05:32:02;23.23;;;15.57;;
81229;SDS011;70701;44.452;18.652;2023-07-13T05:34:28;22.08;;;14.70;;
81229;SDS011;70701;44.452;18.652;2023-07-13T05:36:54;21.45;;;15.65;;
81229;SDS011;70701;44.452;18.652;2023-07-13T05:39:20;16.50;;;12.90;;
81229;SDS011;70701;44.452;18.652;2023-07-13T05:41:48;17.67;;;12.27;;
81229;SDS011;70701;44.452;18.652;2023-07-13T05:44:14;17.92;;;12.25;;
81229;SDS011;70701;44.452;18.652;2023-07-13T05:46:39;21.10;;;11.90;;
81229;SDS011;70701;44.452;18.652;2023-07-13T05:49:05;20.88;;;11.77;;
81229;SDS011;70701;44.452;18.652;2023-07-13T05:51:31;16.13;;;12.40;;
81229;SDS011;70701;44.452;18.652;2023-07-13T05:53:57;16.65;;;12.38;;
81229;SDS011;70701;44.452;18.652;2023-07-13T05:56:22;25.48;;;19.92;;
81229;SDS011;70701;44.452;18.652;2023-07-13T05:58:48;21.30;;;15.88;;
81229;SDS011;70701;44.452;18.652;2023-07-13T06:01:14;19.77;;;16.40;;
81229;SDS011;70701;44.452;18.652;2023-07-13T06:03:41;16.27;;;11.70;;
81229;SDS011;70701;44.452;18.652;2023-07-13T06:06:07;15.63;;;11.38;;
81229;SDS011;70701;44.452;18.652;2023-07-13T06:08:35;13.50;;;10.57;;
81229;SDS011;70701;44.452;18.652;2023-07-13T06:11:15;15.00;;;10.30;;
81229;SDS011;70701;44.452;18.652;2023-07-13T06:13:43;12.20;;;10.60;;
81229;SDS011;70701;44.452;18.652;2023-07-13T06:16:09;13.35;;;9.50;;
81229;SDS011;70701;44.452;18.652;2023-07-13T06:18:35;11.77;;;9.18;;
81229;SDS011;70701;44.452;18.652;2023-07-13T06:21:06;12.40;;;9.52;;
81229;SDS011;70701;44.452;18.652;2023-07-13T06:23:33;12.98;;;9.88;;
81229;SDS011;70701;44.452;18.652;2023-07-13T06:25:59;13.45;;;10.85;;
81229;SDS011;70701;44.452;18.652;2023-07-13T06:28:28;13.80;;;9.48;;
81229;SDS011;70701;44.452;18.652;2023-07-13T06:31:33;13.15;;;10.57;;
81229;SDS011;70701;44.452;18.652;2023-07-13T06:33:58;20.20;;;13.70;;
81229;SDS011;70701;44.452;18.652;2023-07-13T06:36:24;17.95;;;11.68;;
81229;SDS011;70701;44.452;18.652;2023-07-13T06:38:50;17.65;;;11.65;;
81229;SDS011;70701;44.452;18.652;2023-07-13T06:41:16;18.92;;;12.02;;
81229;SDS011;70701;44.452;18.652;2023-07-13T06:43:42;25.02;;;13.18;;
81229;SDS011;70701;44.452;18.652;2023-07-13T06:46:07;30.83;;;12.68;;
81229;SDS011;70701;44.452;18.652;2023-07-13T06:48:33;24.83;;;12.63;;
81229;SDS011;70701;44.452;18.652;2023-07-13T06:50:59;28.80;;;12.88;;
81229;SDS011;70701;44.452;18.652;2023-07-13T06:53:25;19.92;;;11.55;;
81229;SDS011;70701;44.452;18.652;2023-07-13T06:55:50;20.88;;;11.23;;
81229;SDS011;70701;44.452;18.652;2023-07-13T06:58:17;21.88;;;10.10;;
81229;SDS011;70701;44.452;18.652;2023-07-13T07:00:43;22.45;;;11.48;;
81229;SDS011;70701;44.452;18.652;2023-07-13T07:03:09;17.95;;;11.20;;
81229;SDS011;70701;44.452;18.652;2023-07-13T07:05:35;17.63;;;11.57;;
81229;SDS011;70701;44.452;18.652;2023-07-13T07:08:00;19.00;;;11.50;;
81229;SDS011;70701;44.452;18.652;2023-07-13T07:10:26;15.00;;;11.77;;
81229;SDS011;70701;44.452;18.652;2023-07-13T07:12:54;13.23;;;11.13;;
81229;SDS011;70701;44.452;18.652;2023-07-13T07:15:20;19.38;;;12.18;;
81229;SDS011;70701;44.452;18.652;2023-07-13T07:17:45;16.90;;;11.88;;
81229;SDS011;70701;44.452;18.652;2023-07-13T07:20:11;20.88;;;11.45;;
81229;SDS011;70701;44.452;18.652;2023-07-13T07:22:37;27.67;;;12.80;;
81229;SDS011;70701;44.452;18.652;2023-07-13T07:25:03;18.65;;;13.70;;
81229;SDS011;70701;44.452;18.652;2023-07-13T07:27:29;19.92;;;12.45;;
81229;SDS011;70701;44.452;18.652;2023-07-13T07:29:55;15.98;;;10.55;;
81229;SDS011;70701;44.452;18.652;2023-07-13T07:32:23;15.82;;;9.98;;
81229;SDS011;70701;44.452;18.652;2023-07-13T07:34:48;16.25;;;9.60;;
81229;SDS011;70701;44.452;18.652;2023-07-13T07:37:14;13.75;;;8.40;;
81229;SDS011;70701;44.452;18.652;2023-07-13T07:39:40;13.90;;;8.68;;
81229;SDS011;70701;44.452;18.652;2023-07-13T07:42:06;13.85;;;8.82;;
81229;SDS011;70701;44.452;18.652;2023-07-13T07:44:32;12.18;;;8.13;;
81229;SDS011;70701;44.452;18.652;2023-07-13T07:46:59;15.00;;;9.40;;
81229;SDS011;70701;44.452;18.652;2023-07-13T07:49:25;12.23;;;7.03;;
81229;SDS011;70701;44.452;18.652;2023-07-13T07:51:50;17.30;;;8.75;;
81229;SDS011;70701;44.452;18.652;2023-07-13T07:54:16;13.88;;;8.20;;
81229;SDS011;70701;44.452;18.652;2023-07-13T07:56:42;12.98;;;8.30;;
81229;SDS011;70701;44.452;18.652;2023-07-13T07:59:08;13.52;;;8.23;;
81229;SDS011;70701;44.452;18.652;2023-07-13T08:01:34;11.90;;;7.60;;
81229;SDS011;70701;44.452;18.652;2023-07-13T08:04:00;12.80;;;7.93;;
81229;SDS011;70701;44.452;18.652;2023-07-13T08:06:26;11.07;;;8.55;;
81229;SDS011;70701;44.452;18.652;2023-07-13T08:08:51;11.98;;;8.07;;
81229;SDS011;70701;44.452;18.652;2023-07-13T08:11:17;12.63;;;8.48;;
81229;SDS011;70701;44.452;18.652;2023-07-13T08:13:43;11.77;;;8.27;;
81229;SDS011;70701;44.452;18.652;2023-07-13T08:16:09;9.90;;;8.00;;
81229;SDS011;70701;44.452;18.652;2023-07-13T08:18:35;13.40;;;8.32;;
81229;SDS011;70701;44.452;18.652;2023-07-13T08:21:07;11.85;;;8.93;;
81229;SDS011;70701;44.452;18.652;2023-07-13T08:23:34;12.88;;;7.82;;
81229;SDS011;70701;44.452;18.652;2023-07-13T08:26:00;11.20;;;8.70;;
81229;SDS011;70701;44.452;18.652;2023-07-13T08:28:26;12.18;;;8.55;;
81229;SDS011;70701;44.452;18.652;2023-07-13T08:30:53;11.73;;;8.80;;
81229;SDS011;70701;44.452;18.652;2023-07-13T08:33:19;13.23;;;8.35;;
81229;SDS011;70701;44.452;18.652;2023-07-13T08:35:51;11.23;;;9.10;;
81229;SDS011;70701;44.452;18.652;2023-07-13T08:38:18;13.15;;;9.00;;
81229;SDS011;70701;44.452;18.652;2023-07-13T08:40:49;13.00;;;8.68;;
81229;SDS011;70701;44.452;18.652;2023-07-13T08:43:19;11.90;;;8.73;;
81229;SDS011;70701;44.452;18.652;2023-07-13T08:45:51;12.18;;;8.73;;
81229;SDS011;70701;44.452;18.652;2023-07-13T08:48:23;12.65;;;9.00;;
81229;SDS011;70701;44.452;18.652;2023-07-13T08:53:47;12.05;;;8.27;;
81229;SDS011;70701;44.452;18.652;2023-07-13T08:56:17;13.18;;;9.43;;
81229;SDS011;70701;44.452;18.652;2023-07-13T08:58:47;15.82;;;10.07;;
81229;SDS011;70701;44.452;18.652;2023-07-13T09:04:25;13.52;;;9.43;;
81229;SDS011;70701;44.452;18.652;2023-07-13T09:09:37;13.93;;;8.98;;
81229;SDS011;70701;44.452;18.652;2023-07-13T09:14:46;16.20;;;9.30;;
81229;SDS011;70701;44.452;18.652;2023-07-13T09:17:25;13.88;;;8.90;;
81229;SDS011;70701;44.452;18.652;2023-07-13T09:20:02;11.90;;;8.65;;
81229;SDS011;70701;44.452;18.652;2023-07-13T09:22:36;12.55;;;8.63;;
81229;SDS011;70701;44.452;18.652;2023-07-13T09:27:51;10.85;;;8.13;;
81229;SDS011;70701;44.452;18.652;2023-07-13T09:32:52;11.75;;;7.72;;
81229;SDS011;70701;44.452;18.652;2023-07-13T09:35:22;10.15;;;7.78;;
81229;SDS011;70701;44.452;18.652;2023-07-13T09:38:16;10.27;;;7.80;;
81229;SDS011;70701;44.452;18.652;2023-07-13T09:43:38;10.15;;;7.68;;
81229;SDS011;70701;44.452;18.652;2023-07-13T09:46:04;8.77;;;7.03;;
81229;SDS011;70701;44.452;18.652;2023-07-13T09:48:44;10.57;;;7.70;;
81229;SDS011;70701;44.452;18.652;2023-07-13T09:51:13;10.20;;;7.57;;
81229;SDS011;70701;44.452;18.652;2023-07-13T09:53:45;14.30;;;7.60;;
81229;SDS011;70701;44.452;18.652;2023-07-13T09:58:53;9.93;;;7.47;;
81229;SDS011;70701;44.452;18.652;2023-07-13T10:01:38;9.45;;;6.85;;
81229;SDS011;70701;44.452;18.652;2023-07-13T10:04:13;10.15;;;7.40;;
81229;SDS011;70701;44.452;18.652;2023-07-13T10:06:41;11.02;;;6.70;;
81229;SDS011;70701;44.452;18.652;2023-07-13T10:09:08;9.27;;;6.90;;
81229;SDS011;70701;44.452;18.652;2023-07-13T10:11:37;35.72;;;28.92;;
81229;SDS011;70701;44.452;18.652;2023-07-13T10:16:43;25.90;;;23.08;;
81229;SDS011;70701;44.452;18.652;2023-07-13T10:19:26;22.90;;;14.00;;
81229;SDS011;70701;44.452;18.652;2023-07-13T10:24:54;13.70;;;9.45;;
81229;SDS011;70701;44.452;18.652;2023-07-13T10:27:34;10.55;;;7.53;;
81229;SDS011;70701;44.452;18.652;2023-07-13T10:30:09;11.57;;;8.20;;
81229;SDS011;70701;44.452;18.652;2023-07-13T10:32:37;11.40;;;8.07;;
81229;SDS011;70701;44.452;18.652;2023-07-13T10:35:03;13.60;;;7.18;;
81229;SDS011;70701;44.452;18.652;2023-07-13T10:37:37;10.82;;;7.60;;
81229;SDS011;70701;44.452;18.652;2023-07-13T10:40:13;12.75;;;7.45;;
81229;SDS011;70701;44.452;18.652;2023-07-13T10:42:44;12.13;;;7.63;;
81229;SDS011;70701;44.452;18.652;2023-07-13T10:45:20;12.95;;;7.88;;
81229;SDS011;70701;44.452;18.652;2023-07-13T10:47:48;9.85;;;7.40;;
81229;SDS011;70701;44.452;18.652;2023-07-13T10:50:20;11.18;;;7.65;;
81229;SDS011;70701;44.452;18.652;2023-07-13T10:52:55;12.65;;;7.75;;
81229;SDS011;70701;44.452;18.652;2023-07-13T10:56:03;10.90;;;7.32;;
81229;SDS011;70701;44.452;18.652;2023-07-13T10:58:42;14.57;;;7.93;;
81229;SDS011;70701;44.452;18.652;2023-07-13T11:03:39;11.65;;;7.60;;
81229;SDS011;70701;44.452;18.652;2023-07-13T11:06:17;9.43;;;7.00;;
81229;SDS011;70701;44.452;18.652;2023-07-13T11:11:47;9.82;;;7.03;;
81229;SDS011;70701;44.452;18.652;2023-07-13T11:16:48;12.25;;;7.50;;
81229;SDS011;70701;44.452;18.652;2023-07-13T11:24:33;11.40;;;8.02;;
81229;SDS011;70701;44.452;18.652;2023-07-13T11:30:23;9.88;;;7.45;;
81229;SDS011;70701;44.452;18.652;2023-07-13T11:38:39;9.77;;;7.40;;
81229;SDS011;70701;44.452;18.652;2023-07-13T11:41:13;9.48;;;7.38;;
81229;SDS011;70701;44.452;18.652;2023-07-13T11:44:14;11.25;;;7.47;;
81229;SDS011;70701;44.452;18.652;2023-07-13T11:46:50;9.70;;;7.93;;
81229;SDS011;70701;44.452;18.652;2023-07-13T11:49:18;11.57;;;7.78;;
81229;SDS011;70701;44.452;18.652;2023-07-13T11:51:45;11.07;;;7.38;;
81229;SDS011;70701;44.452;18.652;2023-07-13T11:56:49;13.15;;;8.23;;
81229;SDS011;70701;44.452;18.652;2023-07-13T11:59:15;11.57;;;8.00;;
81229;SDS011;70701;44.452;18.652;2023-07-13T12:01:42;10.48;;;7.30;;
81229;SDS011;70701;44.452;18.652;2023-07-13T12:04:24;11.52;;;7.40;;
81229;SDS011;70701;44.452;18.652;2023-07-13T12:07:07;15.07;;;8.90;;
81229;SDS011;70701;44.452;18.652;2023-07-13T12:09:39;11.55;;;8.27;;
81229;SDS011;70701;44.452;18.652;2023-07-13T12:12:11;9.73;;;7.30;;
81229;SDS011;70701;44.452;18.652;2023-07-13T12:14:42;10.85;;;7.95;;
81229;SDS011;70701;44.452;18.652;2023-07-13T12:17:11;11.57;;;8.45;;
81229;SDS011;70701;44.452;18.652;2023-07-13T12:19:41;11.93;;;7.80;;
81229;SDS011;70701;44.452;18.652;2023-07-13T12:22:11;12.15;;;7.68;;
81229;SDS011;70701;44.452;18.652;2023-07-13T12:24:42;12.80;;;7.40;;
81229;SDS011;70701;44.452;18.652;2023-07-13T12:27:20;9.90;;;7.55;;
81229;SDS011;70701;44.452;18.652;2023-07-13T12:29:52;9.20;;;7.38;;
81229;SDS011;70701;44.452;18.652;2023-07-13T12:32:23;12.80;;;7.55;;
81229;SDS011;70701;44.452;18.652;2023-07-13T12:35:12;13.50;;;7.45;;
81229;SDS011;70701;44.452;18.652;2023-07-13T12:37:43;16.08;;;8.95;;
81229;SDS011;70701;44.452;18.652;2023-07-13T12:40:15;13.55;;;8.15;;
81229;SDS011;70701;44.452;18.652;2023-07-13T12:42:48;12.23;;;8.43;;
81229;SDS011;70701;44.452;18.652;2023-07-13T12:45:19;12.35;;;9.13;;
81229;SDS011;70701;44.452;18.652;2023-07-13T12:47:54;11.07;;;8.95;;
81229;SDS011;70701;44.452;18.652;2023-07-13T12:50:30;16.13;;;9.02;;
81229;SDS011;70701;44.452;18.652;2023-07-13T12:53:03;11.77;;;9.20;;
81229;SDS011;70701;44.452;18.652;2023-07-13T12:55:39;14.15;;;9.00;;
81229;SDS011;70701;44.452;18.652;2023-07-13T12:58:45;11.88;;;8.70;;
81229;SDS011;70701;44.452;18.652;2023-07-13T13:01:15;14.13;;;8.63;;
81229;SDS011;70701;44.452;18.652;2023-07-13T13:03:46;13.82;;;9.20;;
81229;SDS011;70701;44.452;18.652;2023-07-13T13:08:44;13.80;;;9.07;;
81229;SDS011;70701;44.452;18.652;2023-07-13T13:11:11;11.95;;;9.48;;
81229;SDS011;70701;44.452;18.652;2023-07-13T13:13:41;12.05;;;8.85;;
81229;SDS011;70701;44.452;18.652;2023-07-13T13:16:21;15.73;;;9.70;;
81229;SDS011;70701;44.452;18.652;2023-07-13T13:19:15;14.48;;;10.02;;
81229;SDS011;70701;44.452;18.652;2023-07-13T13:21:47;16.08;;;10.93;;
81229;SDS011;70701;44.452;18.652;2023-07-13T13:24:19;16.33;;;9.65;;
81229;SDS011;70701;44.452;18.652;2023-07-13T13:26:47;18.85;;;10.15;;
81229;SDS011;70701;44.452;18.652;2023-07-13T13:29:18;15.18;;;9.35;;
81229;SDS011;70701;44.452;18.652;2023-07-13T13:31:46;18.08;;;12.95;;
81229;SDS011;70701;44.452;18.652;2023-07-13T13:34:19;15.43;;;10.45;;
81229;SDS011;70701;44.452;18.652;2023-07-13T13:36:47;18.92;;;14.48;;
81229;SDS011;70701;44.452;18.652;2023-07-13T13:39:23;19.17;;;9.93;;
81229;SDS011;70701;44.452;18.652;2023-07-13T13:41:53;14.68;;;9.30;;
81229;SDS011;70701;44.452;18.652;2023-07-13T13:44:20;12.23;;;8.13;;
81229;SDS011;70701;44.452;18.652;2023-07-13T13:46:50;14.15;;;10.32;;
81229;SDS011;70701;44.452;18.652;2023-07-13T13:49:20;25.98;;;18.50;;
81229;SDS011;70701;44.452;18.652;2023-07-13T13:51:49;19.60;;;13.13;;
81229;SDS011;70701;44.452;18.652;2023-07-13T13:54:16;12.55;;;9.75;;
81229;SDS011;70701;44.452;18.652;2023-07-13T13:56:43;12.57;;;8.23;;
81229;SDS011;70701;44.452;18.652;2023-07-13T13:59:11;15.65;;;9.25;;
81229;SDS011;70701;44.452;18.652;2023-07-13T14:01:38;15.32;;;8.98;;
81229;SDS011;70701;44.452;18.652;2023-07-13T14:04:05;12.32;;;8.63;;
81229;SDS011;70701;44.452;18.652;2023-07-13T14:06:32;13.65;;;8.70;;
81229;SDS011;70701;44.452;18.652;2023-07-13T14:09:01;11.32;;;8.75;;
81229;SDS011;70701;44.452;18.652;2023-07-13T14:11:27;14.75;;;8.35;;
81229;SDS011;70701;44.452;18.652;2023-07-13T14:13:57;13.30;;;8.95;;
81229;SDS011;70701;44.452;18.652;2023-07-13T14:16:31;11.32;;;8.25;;
81229;SDS011;70701;44.452;18.652;2023-07-13T14:18:59;12.00;;;8.27;;
81229;SDS011;70701;44.452;18.652;2023-07-13T14:21:26;10.55;;;7.85;;
81229;SDS011;70701;44.452;18.652;2023-07-13T14:23:53;10.10;;;7.45;;
81229;SDS011;70701;44.452;18.652;2023-07-13T14:26:20;11.65;;;8.13;;
81229;SDS011;70701;44.452;18.652;2023-07-13T14:28:48;13.10;;;8.23;;
81229;SDS011;70701;44.452;18.652;2023-07-13T14:31:22;14.80;;;7.95;;
81229;SDS011;70701;44.452;18.652;2023-07-13T14:33:49;14.10;;;7.28;;
81229;SDS011;70701;44.452;18.652;2023-07-13T14:36:29;20.45;;;9.65;;
81229;SDS011;70701;44.452;18.652;2023-07-13T14:38:58;10.27;;;7.60;;
81229;SDS011;70701;44.452;18.652;2023-07-13T14:41:26;11.77;;;8.75;;
81229;SDS011;70701;44.452;18.652;2023-07-13T14:43:52;15.73;;;8.30;;
81229;SDS011;70701;44.452;18.652;2023-07-13T14:46:22;17.02;;;8.73;;
81229;SDS011;70701;44.452;18.652;2023-07-13T14:48:54;14.50;;;8.40;;
81229;SDS011;70701;44.452;18.652;2023-07-13T14:51:29;11.38;;;8.77;;
81229;SDS011;70701;44.452;18.652;2023-07-13T14:53:56;14.88;;;9.15;;
81229;SDS011;70701;44.452;18.652;2023-07-13T14:56:22;15.02;;;10.25;;
81229;SDS011;70701;44.452;18.652;2023-07-13T14:58:48;23.05;;;11.88;;
81229;SDS011;70701;44.452;18.652;2023-07-13T15:01:14;45.55;;;21.27;;
81229;SDS011;70701;44.452;18.652;2023-07-13T15:03:43;63.30;;;30.80;;
81229;SDS011;70701;44.452;18.652;2023-07-13T15:06:11;37.90;;;20.65;;
81229;SDS011;70701;44.452;18.652;2023-07-13T15:08:38;61.95;;;32.83;;
81229;SDS011;70701;44.452;18.652;2023-07-13T15:11:12;49.08;;;25.25;;
81229;SDS011;70701;44.452;18.652;2023-07-13T15:13:38;38.13;;;16.35;;
81229;SDS011;70701;44.452;18.652;2023-07-13T15:16:22;26.35;;;14.57;;
81229;SDS011;70701;44.452;18.652;2023-07-13T15:18:51;16.00;;;11.25;;
81229;SDS011;70701;44.452;18.652;2023-07-13T15:21:19;14.43;;;10.60;;